Salem, UT (84653)

3:40 AM MDT on August 31, 2014 (GMT -0600)
Ironrod | Change Station
CLOSE
Current Station
Personal Weather Station
Location: Elk Ridge, UT
Elevation: 5420 ft
Nearby Weather Stations

Elev 5420 ft 40.01 °N, 111.68 °W | Updated 36 seconds ago

Overcast
Overcast
68.9 °F
Feels Like 68.9 °F
N
4.0
Wind Variable Wind from SSW
Gusts 6.0 mph

Today
High -- | Low -- °F
--% Chance of Precip.
Yesterday
High -- | Low -- °F
Precip. -- in
6:53 AM 7:59 PM
Waxing Crescent, 29% visible
Pressure 29.85 in
Visibility 10.0 miles
Clouds Clear
Dew Point 31 °F
Humidity 24%
Rainfall 0.00 in
Snow Depth Not available.
UV 0 out of 12
Pollen 8.60 out of 12
Air Quality Not available.
Flu Activity Not available.
METAR KPVU 310935Z AUTO 33018G23KT 10SM CLR 21/10 A2985 RMK AO1

More Conditions Fewer Conditions

Pressure 29.85 in
Visibility 10.0 miles
Clouds Clear
Dew Point 31 °F
Humidity 24%
Rainfall 0.00 in
Snow Depth Not available.
UV 0 out of 12
Pollen 8.60 out of 12
Air Quality Not available.
Flu Activity Not available.
METAR KPVU 310935Z AUTO 33018G23KT 10SM CLR 21/10 A2985 RMK AO1

More Conditions Fewer Conditions

10-Day Weather Forecast

Almanac

Astronomy

Aug. 31, 2014 Rise Set
Actual Time 6:53 AM MDT 7:59 PM MDT
Civil Twilight 6:25 AM MDT 8:27 PM MDT
Nautical Twilight 5:52 AM MDT 9:00 PM MDT
Astronomical Twilight 5:17 AM MDT 9:35 PM MDT
Moon 12:43 PM MDT 11:17 PM MDT
Length of Visible Light 14h 01m
Length of Day
13h 06m
Tomorrow will be 2m 32s shorter.
Waxing Crescent, 29% of the Moon is Illuminated
Today
Waxing Crescent
Sep 2
First Quarter
Sep 8
Full
Sep 15
Last Quarter
Sep 24
New

Today's Extremes

State Highs State Lows

Community

WunderPhotos

Upload Photos

1,748,834 photos uploaded!

Nearby

Snow Depth

Station Depth Elevation
Cascade Mountain 1 in 7768 ft
Clear Creek #2 0 in 8300 ft
Strawberry Divide 0 in 8400 ft
Timpanogos Divide 0 in 8140 ft
Daniels-Strawberry 0 in 8000 ft

Earthquake Activity

City Distance Mag. Time & Date
No recent earthquake activity has been reported nearby.
Minimum magnitude displayed is 2.5.

Coastal Water Temperatures

Place Temperature
No Stations Reporting

Nearby Weather Stations